sensor_id;sensor_type;location;lat;lon;timestamp;temperature;humidity
1015;DHT22;8170;48.118;11.628;2022-07-23T00:00:18;23.90;99.90
1015;DHT22;8170;48.118;11.628;2022-07-23T00:01:22;24.00;99.90
1015;DHT22;8170;48.118;11.628;2022-07-23T00:02:28;24.00;99.90
1015;DHT22;8170;48.118;11.628;2022-07-23T00:03:32;24.10;99.90
1015;DHT22;8170;48.118;11.628;2022-07-23T00:04:34;24.10;99.90
1015;DHT22;8170;48.118;11.628;2022-07-23T00:05:39;24.20;99.90
1015;DHT22;8170;48.118;11.628;2022-07-23T00:06:41;24.20;99.90
1015;DHT22;8170;48.118;11.628;2022-07-23T00:07:44;24.20;99.90
1015;DHT22;8170;48.118;11.628;2022-07-23T00:08:46;24.20;99.90
1015;DHT22;8170;48.118;11.628;2022-07-23T00:09:50;24.30;99.90
1015;DHT22;8170;48.118;11.628;2022-07-23T00:10:52;24.30;99.90
1015;DHT22;8170;48.118;11.628;2022-07-23T00:11:55;24.20;99.90
1015;DHT22;8170;48.118;11.628;2022-07-23T00:12:57;24.20;99.90
1015;DHT22;8170;48.118;11.628;2022-07-23T00:14:00;24.20;99.90
1015;DHT22;8170;48.118;11.628;2022-07-23T00:15:03;24.20;99.90
1015;DHT22;8170;48.118;11.628;2022-07-23T00:16:07;24.20;99.90
1015;DHT22;8170;48.118;11.628;2022-07-23T00:17:09;24.10;99.90
1015;DHT22;8170;48.118;11.628;2022-07-23T00:18:12;24.10;99.90
1015;DHT22;8170;48.118;11.628;2022-07-23T00:19:14;24.10;99.90
1015;DHT22;8170;48.118;11.628;2022-07-23T00:20:18;24.10;99.90
1015;DHT22;8170;48.118;11.628;2022-07-23T00:21:21;24.00;99.90
1015;DHT22;8170;48.118;11.628;2022-07-23T00:22:24;24.00;99.90
1015;DHT22;8170;48.118;11.628;2022-07-23T00:23:26;24.00;99.90
1015;DHT22;8170;48.118;11.628;2022-07-23T00:24:31;24.00;99.90
1015;DHT22;8170;48.118;11.628;2022-07-23T00:25:33;24.00;99.90
1015;DHT22;8170;48.118;11.628;2022-07-23T00:26:36;24.10;99.90
1015;DHT22;8170;48.118;11.628;2022-07-23T00:27:38;24.10;99.90
1015;DHT22;8170;48.118;11.628;2022-07-23T00:28:41;24.10;99.90
1015;DHT22;8170;48.118;11.628;2022-07-23T00:29:44;24.00;99.90
1015;DHT22;8170;48.118;11.628;2022-07-23T00:30:47;24.00;99.90
1015;DHT22;8170;48.118;11.628;2022-07-23T00:31:49;24.00;99.90
1015;DHT22;8170;48.118;11.628;2022-07-23T00:32:55;24.00;99.90
1015;DHT22;8170;48.118;11.628;2022-07-23T00:33:58;23.90;99.90
1015;DHT22;8170;48.118;11.628;2022-07-23T00:35:03;23.90;99.90
1015;DHT22;8170;48.118;11.628;2022-07-23T00:36:06;23.90;99.90
1015;DHT22;8170;48.118;11.628;2022-07-23T00:37:11;23.90;99.90
1015;DHT22;8170;48.118;11.628;2022-07-23T00:38:13;23.90;99.90
1015;DHT22;8170;48.118;11.628;2022-07-23T00:39:16;24.00;99.90
1015;DHT22;8170;48.118;11.628;2022-07-23T00:40:19;23.90;99.90
1015;DHT22;8170;48.118;11.628;2022-07-23T00:41:22;24.00;99.90
1015;DHT22;8170;48.118;11.628;2022-07-23T00:42:24;23.90;99.90
1015;DHT22;8170;48.118;11.628;2022-07-23T00:43:27;23.90;99.90
1015;DHT22;8170;48.118;11.628;2022-07-23T00:44:30;23.90;99.90
1015;DHT22;8170;48.118;11.628;2022-07-23T00:45:33;23.80;99.90
1015;DHT22;8170;48.118;11.628;2022-07-23T00:46:36;23.80;99.90
1015;DHT22;8170;48.118;11.628;2022-07-23T00:47:39;23.80;99.90
1015;DHT22;8170;48.118;11.628;2022-07-23T00:48:42;23.80;99.90
1015;DHT22;8170;48.118;11.628;2022-07-23T00:49:44;23.90;99.90
1015;DHT22;8170;48.118;11.628;2022-07-23T00:50:47;23.90;99.90
1015;DHT22;8170;48.118;11.628;2022-07-23T00:51:50;23.90;99.90
1015;DHT22;8170;48.118;11.628;2022-07-23T00:52:57;23.80;99.90
1015;DHT22;8170;48.118;11.628;2022-07-23T00:53:59;23.80;99.90
1015;DHT22;8170;48.118;11.628;2022-07-23T00:55:03;23.80;99.90
1015;DHT22;8170;48.118;11.628;2022-07-23T00:56:07;23.70;99.90
1015;DHT22;8170;48.118;11.628;2022-07-23T00:57:11;23.70;99.90
1015;DHT22;8170;48.118;11.628;2022-07-23T00:58:13;23.70;99.90
1015;DHT22;8170;48.118;11.628;2022-07-23T00:59:17;23.70;99.90
1015;DHT22;8170;48.118;11.628;2022-07-23T01:00:19;23.70;99.90
1015;DHT22;8170;48.118;11.628;2022-07-23T01:01:22;23.70;99.90
1015;DHT22;8170;48.118;11.628;2022-07-23T01:02:25;23.70;99.90
1015;DHT22;8170;48.118;11.628;2022-07-23T01:03:29;23.70;99.90
1015;DHT22;8170;48.118;11.628;2022-07-23T01:04:32;23.70;99.90
1015;DHT22;8170;48.118;11.628;2022-07-23T01:05:35;23.70;99.90
1015;DHT22;8170;48.118;11.628;2022-07-23T01:06:38;23.70;99.90
1015;DHT22;8170;48.118;11.628;2022-07-23T01:07:41;23.70;99.90
1015;DHT22;8170;48.118;11.628;2022-07-23T01:08:45;23.70;99.90
1015;DHT22;8170;48.118;11.628;2022-07-23T01:09:49;23.70;99.90
1015;DHT22;8170;48.118;11.628;2022-07-23T01:10:53;23.70;99.90
1015;DHT22;8170;48.118;11.628;2022-07-23T01:11:56;23.70;99.90
1015;DHT22;8170;48.118;11.628;2022-07-23T01:13:01;23.80;99.90
1015;DHT22;8170;48.118;11.628;2022-07-23T01:14:11;23.70;99.90
1015;DHT22;8170;48.118;11.628;2022-07-23T01:15:15;23.70;99.90
1015;DHT22;8170;48.118;11.628;2022-07-23T01:16:17;23.70;99.90
1015;DHT22;8170;48.118;11.628;2022-07-23T01:17:20;23.80;99.90
1015;DHT22;8170;48.118;11.628;2022-07-23T01:18:22;23.80;99.90
1015;DHT22;8170;48.118;11.628;2022-07-23T01:19:25;23.70;99.90
1015;DHT22;8170;48.118;11.628;2022-07-23T01:20:27;23.70;99.90
1015;DHT22;8170;48.118;11.628;2022-07-23T01:21:32;23.70;99.90
1015;DHT22;8170;48.118;11.628;2022-07-23T01:22:36;23.70;99.90
1015;DHT22;8170;48.118;11.628;2022-07-23T01:23:39;23.60;99.90
1015;DHT22;8170;48.118;11.628;2022-07-23T01:24:42;23.60;99.90
1015;DHT22;8170;48.118;11.628;2022-07-23T01:25:53;23.60;99.90
1015;DHT22;8170;48.118;11.628;2022-07-23T01:26:56;23.60;99.90
1015;DHT22;8170;48.118;11.628;2022-07-23T01:27:59;23.60;99.90
1015;DHT22;8170;48.118;11.628;2022-07-23T01:29:02;23.60;99.90
1015;DHT22;8170;48.118;11.628;2022-07-23T01:30:07;23.60;99.90
1015;DHT22;8170;48.118;11.628;2022-07-23T01:31:09;23.60;99.90
1015;DHT22;8170;48.118;11.628;2022-07-23T01:32:12;23.50;99.90
1015;DHT22;8170;48.118;11.628;2022-07-23T01:33:15;23.50;99.90
1015;DHT22;8170;48.118;11.628;2022-07-23T01:34:18;23.40;99.90
1015;DHT22;8170;48.118;11.628;2022-07-23T01:35:20;23.30;99.90
1015;DHT22;8170;48.118;11.628;2022-07-23T01:36:25;23.20;99.90
1015;DHT22;8170;48.118;11.628;2022-07-23T01:37:28;23.10;99.90
1015;DHT22;8170;48.118;11.628;2022-07-23T01:38:32;22.70;99.90
1015;DHT22;8170;48.118;11.628;2022-07-23T01:39:35;22.60;99.90
1015;DHT22;8170;48.118;11.628;2022-07-23T01:40:37;22.30;99.90
1015;DHT22;8170;48.118;11.628;2022-07-23T01:41:41;22.20;99.90
1015;DHT22;8170;48.118;11.628;2022-07-23T01:42:45;22.00;99.90
1015;DHT22;8170;48.118;11.628;2022-07-23T01:43:48;22.00;99.90
1015;DHT22;8170;48.118;11.628;2022-07-23T01:44:50;22.00;99.90
1015;DHT22;8170;48.118;11.628;2022-07-23T01:45:55;22.00;99.90
1015;DHT22;8170;48.118;11.628;2022-07-23T01:47:00;22.00;99.90
1015;DHT22;8170;48.118;11.628;2022-07-23T01:48:05;22.10;99.90
1015;DHT22;8170;48.118;11.628;2022-07-23T01:49:14;22.10;99.90
1015;DHT22;8170;48.118;11.628;2022-07-23T01:50:35;22.00;99.90
1015;DHT22;8170;48.118;11.628;2022-07-23T01:51:55;22.00;99.90
1015;DHT22;8170;48.118;11.628;2022-07-23T01:53:10;21.90;99.90
1015;DHT22;8170;48.118;11.628;2022-07-23T01:54:14;21.90;99.90
1015;DHT22;8170;48.118;11.628;2022-07-23T01:55:17;21.90;99.90
1015;DHT22;8170;48.118;11.628;2022-07-23T01:56:22;21.90;99.90
1015;DHT22;8170;48.118;11.628;2022-07-23T01:57:26;21.80;99.90
1015;DHT22;8170;48.118;11.628;2022-07-23T01:58:28;21.60;99.90
1015;DHT22;8170;48.118;11.628;2022-07-23T01:59:31;21.60;99.90
1015;DHT22;8170;48.118;11.628;2022-07-23T02:00:34;21.50;99.90
1015;DHT22;8170;48.118;11.628;2022-07-23T02:01:38;21.50;99.90
1015;DHT22;8170;48.118;11.628;2022-07-23T02:02:40;21.50;99.90
1015;DHT22;8170;48.118;11.628;2022-07-23T02:03:43;21.50;99.90
1015;DHT22;8170;48.118;11.628;2022-07-23T02:04:46;21.40;99.90
1015;DHT22;8170;48.118;11.628;2022-07-23T02:05:51;21.40;99.90
1015;DHT22;8170;48.118;11.628;2022-07-23T02:06:53;21.40;99.90
1015;DHT22;8170;48.118;11.628;2022-07-23T02:07:57;21.40;99.90
1015;DHT22;8170;48.118;11.628;2022-07-23T02:08:59;21.30;99.90
1015;DHT22;8170;48.118;11.628;2022-07-23T02:10:05;21.30;99.90
1015;DHT22;8170;48.118;11.628;2022-07-23T02:11:11;21.30;99.90
1015;DHT22;8170;48.118;11.628;2022-07-23T02:12:13;21.20;99.90
1015;DHT22;8170;48.118;11.628;2022-07-23T02:13:19;21.20;99.90
1015;DHT22;8170;48.118;11.628;2022-07-23T02:14:21;21.20;99.90
1015;DHT22;8170;48.118;11.628;2022-07-23T02:15:25;21.20;99.90
1015;DHT22;8170;48.118;11.628;2022-07-23T02:16:27;21.20;99.90
1015;DHT22;8170;48.118;11.628;2022-07-23T02:17:36;21.20;99.90
1015;DHT22;8170;48.118;11.628;2022-07-23T02:18:39;21.10;99.90
1015;DHT22;8170;48.118;11.628;2022-07-23T02:19:42;21.00;99.90
1015;DHT22;8170;48.118;11.628;2022-07-23T02:20:44;21.00;99.90
1015;DHT22;8170;48.118;11.628;2022-07-23T02:21:47;20.90;99.90
1015;DHT22;8170;48.118;11.628;2022-07-23T02:22:49;20.80;99.90
1015;DHT22;8170;48.118;11.628;2022-07-23T02:23:53;20.80;99.90
1015;DHT22;8170;48.118;11.628;2022-07-23T02:24:55;20.80;99.90
1015;DHT22;8170;48.118;11.628;2022-07-23T02:25:59;20.70;99.90
1015;DHT22;8170;48.118;11.628;2022-07-23T02:27:03;20.70;99.90
1015;DHT22;8170;48.118;11.628;2022-07-23T02:28:07;20.70;99.90
1015;DHT22;8170;48.118;11.628;2022-07-23T02:29:09;20.70;99.90
1015;DHT22;8170;48.118;11.628;2022-07-23T02:30:12;20.70;99.90
1015;DHT22;8170;48.118;11.628;2022-07-23T02:31:15;20.70;99.90
1015;DHT22;8170;48.118;11.628;2022-07-23T02:32:18;20.70;99.90
1015;DHT22;8170;48.118;11.628;2022-07-23T02:33:20;20.70;99.90
1015;DHT22;8170;48.118;11.628;2022-07-23T02:34:23;20.70;99.90
1015;DHT22;8170;48.118;11.628;2022-07-23T02:35:26;20.70;99.90
1015;DHT22;8170;48.118;11.628;2022-07-23T02:36:32;20.70;99.90
1015;DHT22;8170;48.118;11.628;2022-07-23T02:37:34;20.60;99.90
1015;DHT22;8170;48.118;11.628;2022-07-23T02:38:37;20.60;99.90
1015;DHT22;8170;48.118;11.628;2022-07-23T02:39:39;20.60;99.90
1015;DHT22;8170;48.118;11.628;2022-07-23T02:40:42;20.60;99.90
1015;DHT22;8170;48.118;11.628;2022-07-23T02:41:46;20.60;99.90
1015;DHT22;8170;48.118;11.628;2022-07-23T02:42:49;20.60;99.90
1015;DHT22;8170;48.118;11.628;2022-07-23T02:43:53;20.50;99.90
1015;DHT22;8170;48.118;11.628;2022-07-23T02:44:56;20.50;99.90
1015;DHT22;8170;48.118;11.628;2022-07-23T02:45:59;20.40;99.90
1015;DHT22;8170;48.118;11.628;2022-07-23T02:47:02;20.40;99.90
1015;DHT22;8170;48.118;11.628;2022-07-23T02:48:07;20.30;99.90
1015;DHT22;8170;48.118;11.628;2022-07-23T02:49:10;20.30;99.90
1015;DHT22;8170;48.118;11.628;2022-07-23T02:50:13;20.30;99.90
1015;DHT22;8170;48.118;11.628;2022-07-23T02:51:15;20.30;99.90
1015;DHT22;8170;48.118;11.628;2022-07-23T02:52:25;20.30;99.90
1015;DHT22;8170;48.118;11.628;2022-07-23T02:53:28;20.30;99.90
1015;DHT22;8170;48.118;11.628;2022-07-23T02:54:31;20.30;99.90
1015;DHT22;8170;48.118;11.628;2022-07-23T02:55:33;20.30;99.90
1015;DHT22;8170;48.118;11.628;2022-07-23T02:56:37;20.20;99.90
1015;DHT22;8170;48.118;11.628;2022-07-23T02:57:40;20.20;99.90
1015;DHT22;8170;48.118;11.628;2022-07-23T02:58:43;20.20;99.90
1015;DHT22;8170;48.118;11.628;2022-07-23T02:59:45;20.30;99.90
1015;DHT22;8170;48.118;11.628;2022-07-23T03:00:48;20.40;99.90
1015;DHT22;8170;48.118;11.628;2022-07-23T03:01:51;20.40;99.90
1015;DHT22;8170;48.118;11.628;2022-07-23T03:02:54;20.40;99.90
1015;DHT22;8170;48.118;11.628;2022-07-23T03:03:56;20.40;99.90
1015;DHT22;8170;48.118;11.628;2022-07-23T03:05:00;20.40;99.90
1015;DHT22;8170;48.118;11.628;2022-07-23T03:06:02;20.40;99.90
1015;DHT22;8170;48.118;11.628;2022-07-23T03:07:05;20.30;99.90
1015;DHT22;8170;48.118;11.628;2022-07-23T03:08:07;20.30;99.90
1015;DHT22;8170;48.118;11.628;2022-07-23T03:09:13;20.30;99.90
1015;DHT22;8170;48.118;11.628;2022-07-23T03:10:15;20.40;99.90
1015;DHT22;8170;48.118;11.628;2022-07-23T03:11:19;20.40;99.90
1015;DHT22;8170;48.118;11.628;2022-07-23T03:12:22;20.40;99.90
1015;DHT22;8170;48.118;11.628;2022-07-23T03:13:27;20.40;99.90
1015;DHT22;8170;48.118;11.628;2022-07-23T03:14:32;20.40;99.90
1015;DHT22;8170;48.118;11.628;2022-07-23T03:15:35;20.30;99.90
1015;DHT22;8170;48.118;11.628;2022-07-23T03:16:38;20.20;99.90
1015;DHT22;8170;48.118;11.628;2022-07-23T03:17:41;20.10;99.90
1015;DHT22;8170;48.118;11.628;2022-07-23T03:18:44;20.10;99.90
1015;DHT22;8170;48.118;11.628;2022-07-23T03:19:47;20.00;99.90
1015;DHT22;8170;48.118;11.628;2022-07-23T03:20:49;20.10;99.90
1015;DHT22;8170;48.118;11.628;2022-07-23T03:21:52;20.10;99.90
1015;DHT22;8170;48.118;11.628;2022-07-23T03:22:54;20.10;99.90
1015;DHT22;8170;48.118;11.628;2022-07-23T03:23:57;20.10;99.90
1015;DHT22;8170;48.118;11.628;2022-07-23T03:24:59;20.10;99.90
1015;DHT22;8170;48.118;11.628;2022-07-23T03:26:07;20.10;99.90
1015;DHT22;8170;48.118;11.628;2022-07-23T03:27:10;20.10;99.90
1015;DHT22;8170;48.118;11.628;2022-07-23T03:28:13;20.10;99.90
1015;DHT22;8170;48.118;11.628;2022-07-23T03:29:17;20.10;99.90
1015;DHT22;8170;48.118;11.628;2022-07-23T03:30:20;20.10;99.90
1015;DHT22;8170;48.118;11.628;2022-07-23T03:31:23;20.00;99.90
1015;DHT22;8170;48.118;11.628;2022-07-23T03:32:27;20.00;99.90
1015;DHT22;8170;48.118;11.628;2022-07-23T03:33:30;20.00;99.90
1015;DHT22;8170;48.118;11.628;2022-07-23T03:34:33;20.00;99.90
1015;DHT22;8170;48.118;11.628;2022-07-23T03:35:35;20.00;99.90
1015;DHT22;8170;48.118;11.628;2022-07-23T03:36:50;20.00;99.90
1015;DHT22;8170;48.118;11.628;2022-07-23T03:37:53;20.00;99.90
1015;DHT22;8170;48.118;11.628;2022-07-23T03:38:56;19.90;99.90
1015;DHT22;8170;48.118;11.628;2022-07-23T03:40:00;19.80;99.90
1015;DHT22;8170;48.118;11.628;2022-07-23T03:41:04;19.70;99.90
1015;DHT22;8170;48.118;11.628;2022-07-23T03:42:09;19.60;99.90
1015;DHT22;8170;48.118;11.628;2022-07-23T03:43:11;19.60;99.90
1015;DHT22;8170;48.118;11.628;2022-07-23T03:44:14;19.50;99.90
1015;DHT22;8170;48.118;11.628;2022-07-23T03:45:18;19.40;99.90
1015;DHT22;8170;48.118;11.628;2022-07-23T03:46:21;19.30;99.90
1015;DHT22;8170;48.118;11.628;2022-07-23T03:47:23;19.20;99.90
1015;DHT22;8170;48.118;11.628;2022-07-23T03:48:26;19.10;99.90
1015;DHT22;8170;48.118;11.628;2022-07-23T03:49:29;19.10;99.90
1015;DHT22;8170;48.118;11.628;2022-07-23T03:50:32;19.00;99.90
1015;DHT22;8170;48.118;11.628;2022-07-23T03:51:34;19.00;99.90
1015;DHT22;8170;48.118;11.628;2022-07-23T03:52:37;19.00;99.90
1015;DHT22;8170;48.118;11.628;2022-07-23T03:53:39;18.90;99.90
1015;DHT22;8170;48.118;11.628;2022-07-23T03:54:42;19.00;99.90
1015;DHT22;8170;48.118;11.628;2022-07-23T03:55:45;19.00;99.90
1015;DHT22;8170;48.118;11.628;2022-07-23T03:56:48;19.00;99.90
1015;DHT22;8170;48.118;11.628;2022-07-23T03:57:50;19.10;99.90
1015;DHT22;8170;48.118;11.628;2022-07-23T03:58:54;19.20;99.90
1015;DHT22;8170;48.118;11.628;2022-07-23T03:59:56;19.40;99.90
1015;DHT22;8170;48.118;11.628;2022-07-23T04:01:01;19.40;99.90
1015;DHT22;8170;48.118;11.628;2022-07-23T04:02:03;19.40;99.90
1015;DHT22;8170;48.118;11.628;2022-07-23T04:03:07;19.40;99.90
1015;DHT22;8170;48.118;11.628;2022-07-23T04:04:09;19.50;99.90
1015;DHT22;8170;48.118;11.628;2022-07-23T04:05:15;19.40;99.90
1015;DHT22;8170;48.118;11.628;2022-07-23T04:06:18;19.40;99.90
1015;DHT22;8170;48.118;11.628;2022-07-23T04:07:22;19.40;99.90
1015;DHT22;8170;48.118;11.628;2022-07-23T04:08:25;19.40;99.90
1015;DHT22;8170;48.118;11.628;2022-07-23T04:09:27;19.40;99.90
1015;DHT22;8170;48.118;11.628;2022-07-23T04:10:31;19.40;99.90
1015;DHT22;8170;48.118;11.628;2022-07-23T04:11:33;19.40;99.90
1015;DHT22;8170;48.118;11.628;2022-07-23T04:12:36;19.50;99.90
1015;DHT22;8170;48.118;11.628;2022-07-23T04:13:39;19.50;99.90
1015;DHT22;8170;48.118;11.628;2022-07-23T04:14:43;19.40;99.90
1015;DHT22;8170;48.118;11.628;2022-07-23T04:15:45;19.50;99.90
1015;DHT22;8170;48.118;11.628;2022-07-23T04:16:51;19.60;99.90
1015;DHT22;8170;48.118;11.628;2022-07-23T04:17:55;19.70;99.90
1015;DHT22;8170;48.118;11.628;2022-07-23T04:19:04;19.70;99.90
1015;DHT22;8170;48.118;11.628;2022-07-23T04:20:16;19.70;99.90
1015;DHT22;8170;48.118;11.628;2022-07-23T04:21:24;19.70;99.90
1015;DHT22;8170;48.118;11.628;2022-07-23T04:22:27;19.60;99.90
1015;DHT22;8170;48.118;11.628;2022-07-23T04:23:29;19.60;99.90
1015;DHT22;8170;48.118;11.628;2022-07-23T04:24:32;19.60;99.90
1015;DHT22;8170;48.118;11.628;2022-07-23T04:25:35;19.70;99.90
1015;DHT22;8170;48.118;11.628;2022-07-23T04:26:39;19.70;99.90
1015;DHT22;8170;48.118;11.628;2022-07-23T04:27:41;19.70;99.90
1015;DHT22;8170;48.118;11.628;2022-07-23T04:28:44;19.70;99.90
1015;DHT22;8170;48.118;11.628;2022-07-23T04:29:47;19.70;99.90
1015;DHT22;8170;48.118;11.628;2022-07-23T04:30:50;19.70;99.90
1015;DHT22;8170;48.118;11.628;2022-07-23T04:31:53;19.70;99.90
1015;DHT22;8170;48.118;11.628;2022-07-23T04:32:57;19.60;99.90
1015;DHT22;8170;48.118;11.628;2022-07-23T04:34:02;19.60;99.90
1015;DHT22;8170;48.118;11.628;2022-07-23T04:35:05;19.50;99.90
1015;DHT22;8170;48.118;11.628;2022-07-23T04:36:09;19.40;99.90
1015;DHT22;8170;48.118;11.628;2022-07-23T04:37:12;19.40;99.90
1015;DHT22;8170;48.118;11.628;2022-07-23T04:38:15;19.40;99.90
1015;DHT22;8170;48.118;11.628;2022-07-23T04:39:19;19.50;99.90
1015;DHT22;8170;48.118;11.628;2022-07-23T04:40:22;19.60;99.90
1015;DHT22;8170;48.118;11.628;2022-07-23T04:41:25;19.60;99.90
1015;DHT22;8170;48.118;11.628;2022-07-23T04:42:28;19.80;99.90
1015;DHT22;8170;48.118;11.628;2022-07-23T04:43:31;19.80;99.90
1015;DHT22;8170;48.118;11.628;2022-07-23T04:44:34;19.90;99.90
1015;DHT22;8170;48.118;11.628;2022-07-23T04:45:39;19.90;99.90
1015;DHT22;8170;48.118;11.628;2022-07-23T04:46:41;19.90;99.90
1015;DHT22;8170;48.118;11.628;2022-07-23T04:47:46;20.00;99.90
1015;DHT22;8170;48.118;11.628;2022-07-23T04:48:48;20.00;99.90
1015;DHT22;8170;48.118;11.628;2022-07-23T04:49:52;20.00;99.90
1015;DHT22;8170;48.118;11.628;2022-07-23T04:50:54;20.10;99.90
1015;DHT22;8170;48.118;11.628;2022-07-23T04:51:58;20.10;99.90
1015;DHT22;8170;48.118;11.628;2022-07-23T04:53:01;20.10;99.90
1015;DHT22;8170;48.118;11.628;2022-07-23T04:54:04;20.10;99.90
1015;DHT22;8170;48.118;11.628;2022-07-23T04:55:07;20.10;99.90
1015;DHT22;8170;48.118;11.628;2022-07-23T04:56:11;20.20;99.90
1015;DHT22;8170;48.118;11.628;2022-07-23T04:57:13;20.20;99.90
1015;DHT22;8170;48.118;11.628;2022-07-23T04:58:16;20.20;99.90
1015;DHT22;8170;48.118;11.628;2022-07-23T04:59:18;20.20;99.90
1015;DHT22;8170;48.118;11.628;2022-07-23T05:00:24;20.20;99.90
1015;DHT22;8170;48.118;11.628;2022-07-23T05:01:27;20.30;99.90
1015;DHT22;8170;48.118;11.628;2022-07-23T05:02:30;20.30;99.90
1015;DHT22;8170;48.118;11.628;2022-07-23T05:03:33;20.40;99.90
1015;DHT22;8170;48.118;11.628;2022-07-23T05:04:36;20.40;99.90
1015;DHT22;8170;48.118;11.628;2022-07-23T05:05:40;20.40;99.90
1015;DHT22;8170;48.118;11.628;2022-07-23T05:06:49;20.40;99.90
1015;DHT22;8170;48.118;11.628;2022-07-23T05:07:52;20.40;99.90
1015;DHT22;8170;48.118;11.628;2022-07-23T05:08:55;20.40;99.90
1015;DHT22;8170;48.118;11.628;2022-07-23T05:10:00;20.40;99.90
1015;DHT22;8170;48.118;11.628;2022-07-23T05:11:03;20.40;99.90
1015;DHT22;8170;48.118;11.628;2022-07-23T05:12:07;20.50;99.90
1015;DHT22;8170;48.118;11.628;2022-07-23T05:13:09;20.50;99.90
1015;DHT22;8170;48.118;11.628;2022-07-23T05:14:12;20.50;99.90
1015;DHT22;8170;48.118;11.628;2022-07-23T05:15:16;20.50;99.90
1015;DHT22;8170;48.118;11.628;2022-07-23T05:16:18;20.50;99.90
1015;DHT22;8170;48.118;11.628;2022-07-23T05:17:22;20.60;99.90
1015;DHT22;8170;48.118;11.628;2022-07-23T05:18:24;20.50;99.90
1015;DHT22;8170;48.118;11.628;2022-07-23T05:19:29;20.50;99.90
1015;DHT22;8170;48.118;11.628;2022-07-23T05:20:31;20.60;99.90
1015;DHT22;8170;48.118;11.628;2022-07-23T05:21:35;20.60;99.90
1015;DHT22;8170;48.118;11.628;2022-07-23T05:22:38;20.60;99.90
1015;DHT22;8170;48.118;11.628;2022-07-23T05:23:40;20.60;99.90
1015;DHT22;8170;48.118;11.628;2022-07-23T05:24:43;20.60;99.90
1015;DHT22;8170;48.118;11.628;2022-07-23T05:25:46;20.60;99.90
1015;DHT22;8170;48.118;11.628;2022-07-23T05:26:51;20.70;99.90
1015;DHT22;8170;48.118;11.628;2022-07-23T05:27:53;20.70;99.90
1015;DHT22;8170;48.118;11.628;2022-07-23T05:28:57;20.70;99.90
1015;DHT22;8170;48.118;11.628;2022-07-23T05:29:59;20.60;99.90
1015;DHT22;8170;48.118;11.628;2022-07-23T05:31:05;20.60;99.90
1015;DHT22;8170;48.118;11.628;2022-07-23T05:32:08;20.50;99.90
1015;DHT22;8170;48.118;11.628;2022-07-23T05:33:15;20.30;99.90
1015;DHT22;8170;48.118;11.628;2022-07-23T05:34:17;20.30;99.90
1015;DHT22;8170;48.118;11.628;2022-07-23T05:35:23;20.30;99.90
1015;DHT22;8170;48.118;11.628;2022-07-23T05:36:40;20.20;99.90
1015;DHT22;8170;48.118;11.628;2022-07-23T05:37:44;20.30;99.90
1015;DHT22;8170;48.118;11.628;2022-07-23T05:38:47;20.30;99.90
1015;DHT22;8170;48.118;11.628;2022-07-23T05:39:50;20.40;99.90
1015;DHT22;8170;48.118;11.628;2022-07-23T05:40:53;20.40;99.90
1015;DHT22;8170;48.118;11.628;2022-07-23T05:41:56;20.50;99.90
1015;DHT22;8170;48.118;11.628;2022-07-23T05:42:58;20.60;99.90
1015;DHT22;8170;48.118;11.628;2022-07-23T05:44:02;20.60;99.90
1015;DHT22;8170;48.118;11.628;2022-07-23T05:45:06;20.60;99.90
1015;DHT22;8170;48.118;11.628;2022-07-23T05:46:12;20.60;99.90
1015;DHT22;8170;48.118;11.628;2022-07-23T05:47:16;20.60;99.90
1015;DHT22;8170;48.118;11.628;2022-07-23T05:48:20;20.60;99.90
1015;DHT22;8170;48.118;11.628;2022-07-23T05:49:37;20.70;99.90
1015;DHT22;8170;48.118;11.628;2022-07-23T05:50:45;20.70;99.90
1015;DHT22;8170;48.118;11.628;2022-07-23T05:51:56;20.70;99.90
1015;DHT22;8170;48.118;11.628;2022-07-23T05:53:10;20.70;99.90
1015;DHT22;8170;48.118;11.628;2022-07-23T05:54:34;20.70;99.90
1015;DHT22;8170;48.118;11.628;2022-07-23T05:55:37;20.80;99.90
1015;DHT22;8170;48.118;11.628;2022-07-23T05:56:40;20.80;99.90
1015;DHT22;8170;48.118;11.628;2022-07-23T05:57:42;20.80;99.90
1015;DHT22;8170;48.118;11.628;2022-07-23T05:58:45;20.80;99.90
1015;DHT22;8170;48.118;11.628;2022-07-23T05:59:50;20.80;99.90
1015;DHT22;8170;48.118;11.628;2022-07-23T06:00:53;20.90;99.90
1015;DHT22;8170;48.118;11.628;2022-07-23T06:01:55;20.90;99.90
1015;DHT22;8170;48.118;11.628;2022-07-23T06:02:58;20.90;99.90
1015;DHT22;8170;48.118;11.628;2022-07-23T06:04:03;20.90;99.90
1015;DHT22;8170;48.118;11.628;2022-07-23T06:05:10;20.90;99.90
1015;DHT22;8170;48.118;11.628;2022-07-23T06:06:17;21.00;99.90
1015;DHT22;8170;48.118;11.628;2022-07-23T06:07:20;21.00;99.90
1015;DHT22;8170;48.118;11.628;2022-07-23T06:08:23;21.10;99.90
1015;DHT22;8170;48.118;11.628;2022-07-23T06:09:27;21.10;99.90
1015;DHT22;8170;48.118;11.628;2022-07-23T06:10:29;21.10;99.90
1015;DHT22;8170;48.118;11.628;2022-07-23T06:11:32;21.10;99.90
1015;DHT22;8170;48.118;11.628;2022-07-23T06:12:34;21.10;99.90
1015;DHT22;8170;48.118;11.628;2022-07-23T06:13:38;21.20;99.90
1015;DHT22;8170;48.118;11.628;2022-07-23T06:14:41;21.20;99.90
1015;DHT22;8170;48.118;11.628;2022-07-23T06:15:44;21.20;99.90
1015;DHT22;8170;48.118;11.628;2022-07-23T06:16:47;21.20;99.90
1015;DHT22;8170;48.118;11.628;2022-07-23T06:17:50;21.20;99.90
1015;DHT22;8170;48.118;11.628;2022-07-23T06:18:53;21.20;99.90
1015;DHT22;8170;48.118;11.628;2022-07-23T06:19:56;21.10;99.90
1015;DHT22;8170;48.118;11.628;2022-07-23T06:20:59;20.90;99.90
1015;DHT22;8170;48.118;11.628;2022-07-23T06:22:03;20.90;99.90
1015;DHT22;8170;48.118;11.628;2022-07-23T06:23:06;20.70;99.90
1015;DHT22;8170;48.118;11.628;2022-07-23T06:24:09;20.60;99.90
1015;DHT22;8170;48.118;11.628;2022-07-23T06:25:13;20.40;99.90
1015;DHT22;8170;48.118;11.628;2022-07-23T06:26:20;20.40;99.90
1015;DHT22;8170;48.118;11.628;2022-07-23T06:27:22;20.20;99.90
1015;DHT22;8170;48.118;11.628;2022-07-23T06:28:27;20.10;99.90
1015;DHT22;8170;48.118;11.628;2022-07-23T06:29:29;20.00;99.90
1015;DHT22;8170;48.118;11.628;2022-07-23T06:30:32;19.90;99.90
1015;DHT22;8170;48.118;11.628;2022-07-23T06:31:35;19.90;99.90
1015;DHT22;8170;48.118;11.628;2022-07-23T06:32:38;19.90;99.90
1015;DHT22;8170;48.118;11.628;2022-07-23T06:33:41;19.90;99.90
1015;DHT22;8170;48.118;11.628;2022-07-23T06:34:43;20.00;99.90
1015;DHT22;8170;48.118;11.628;2022-07-23T06:35:49;19.90;99.90
1015;DHT22;8170;48.118;11.628;2022-07-23T06:36:51;19.90;99.90
1015;DHT22;8170;48.118;11.628;2022-07-23T06:37:56;19.90;99.90
1015;DHT22;8170;48.118;11.628;2022-07-23T06:38:58;20.00;99.90
1015;DHT22;8170;48.118;11.628;2022-07-23T06:40:02;20.20;99.90
1015;DHT22;8170;48.118;11.628;2022-07-23T06:41:09;20.30;99.90
1015;DHT22;8170;48.118;11.628;2022-07-23T06:42:11;20.30;99.90
1015;DHT22;8170;48.118;11.628;2022-07-23T06:43:19;20.40;99.90
1015;DHT22;8170;48.118;11.628;2022-07-23T06:44:21;20.40;99.90
1015;DHT22;8170;48.118;11.628;2022-07-23T06:45:24;20.50;99.90
1015;DHT22;8170;48.118;11.628;2022-07-23T06:46:27;20.50;99.90
1015;DHT22;8170;48.118;11.628;2022-07-23T06:47:30;20.50;99.90
1015;DHT22;8170;48.118;11.628;2022-07-23T06:48:32;20.60;99.90